createdAt,value
2019-03-22T00:02:32.837Z,9.97
2019-03-22T00:05:36.161Z,9.99
2019-03-22T00:08:39.481Z,10.06
2019-03-22T00:11:42.856Z,9.96
2019-03-22T00:14:46.847Z,10.06
2019-03-22T00:17:50.189Z,10.07
2019-03-22T00:20:53.469Z,10.03
2019-03-22T00:23:56.771Z,9.94
2019-03-22T00:27:00.182Z,9.82
2019-03-22T00:30:06.602Z,9.86
2019-03-22T00:33:09.930Z,9.94
2019-03-22T00:36:13.231Z,9.88
2019-03-22T00:39:16.565Z,9.78
2019-03-22T00:42:19.865Z,9.68
2019-03-22T00:45:23.223Z,9.61
2019-03-22T00:48:26.571Z,9.53
2019-03-22T00:51:29.877Z,9.42
2019-03-22T00:54:33.200Z,9.36
2019-03-22T00:57:36.565Z,9.50
2019-03-22T01:00:39.861Z,9.45
2019-03-22T01:03:43.178Z,9.48
2019-03-22T01:06:46.482Z,9.48
2019-03-22T01:09:49.799Z,9.46
2019-03-22T01:12:53.119Z,9.17
2019-03-22T01:15:56.434Z,9.13
2019-03-22T01:18:59.721Z,9.19
2019-03-22T01:22:03.039Z,9.12
2019-03-22T01:25:07.003Z,8.81
2019-03-22T01:28:10.325Z,8.81
2019-03-22T01:31:13.641Z,8.93
2019-03-22T01:34:17.113Z,9.04
2019-03-22T01:37:20.437Z,8.97
2019-03-22T01:40:23.735Z,8.97
2019-03-22T01:43:27.042Z,8.78
2019-03-22T01:46:30.363Z,8.88
2019-03-22T01:49:33.677Z,8.85
2019-03-22T01:52:37.424Z,8.72
2019-03-22T01:55:40.735Z,8.77
2019-03-22T01:58:44.072Z,8.83
2019-03-22T02:01:47.387Z,8.78
2019-03-22T02:04:50.763Z,8.83
2019-03-22T02:07:54.030Z,8.95
2019-03-22T02:10:57.311Z,8.92
2019-03-22T02:14:00.902Z,8.82
2019-03-22T02:17:04.239Z,8.67
2019-03-22T02:20:08.478Z,8.74
2019-03-22T02:23:11.791Z,8.93
2019-03-22T02:26:15.108Z,8.90
2019-03-22T02:29:18.422Z,8.91
2019-03-22T02:32:21.754Z,8.84
2019-03-22T02:35:28.860Z,8.67
2019-03-22T02:38:30.091Z,8.42
2019-03-22T02:41:33.381Z,8.40
2019-03-22T02:44:36.707Z,8.41
2019-03-22T02:47:40.042Z,8.45
2019-03-22T02:50:43.339Z,8.23
2019-03-22T02:53:46.662Z,8.05
2019-03-22T02:56:50.139Z,8.19
2019-03-22T02:59:53.535Z,7.97
2019-03-22T03:02:56.853Z,8.01
2019-03-22T03:06:00.178Z,8.34
2019-03-22T03:09:04.620Z,8.38
2019-03-22T03:12:07.953Z,8.09
2019-03-22T03:15:15.633Z,8.01
2019-03-22T03:18:18.960Z,8.23
2019-03-22T03:21:22.279Z,7.93
2019-03-22T03:24:25.616Z,7.84
2019-03-22T03:27:28.928Z,7.95
2019-03-22T03:30:32.257Z,8.01
2019-03-22T03:33:35.567Z,7.83
2019-03-22T03:36:38.873Z,7.57
2019-03-22T03:39:42.196Z,7.72
2019-03-22T03:42:45.593Z,7.35
2019-03-22T03:45:48.895Z,7.59
2019-03-22T03:48:52.216Z,7.45
2019-03-22T03:51:55.563Z,7.69
2019-03-22T03:54:58.862Z,7.64
2019-03-22T03:58:02.186Z,7.44
2019-03-22T04:01:05.490Z,7.21
2019-03-22T04:04:08.830Z,7.52
2019-03-22T04:07:12.171Z,7.56
2019-03-22T04:10:15.472Z,7.53
2019-03-22T04:13:18.801Z,7.62
2019-03-22T04:16:22.121Z,7.80
2019-03-22T04:19:25.468Z,7.70
2019-03-22T04:22:28.780Z,7.61
2019-03-22T04:25:32.087Z,7.52
2019-03-22T04:28:35.415Z,7.12
2019-03-22T04:31:38.725Z,7.32
2019-03-22T04:34:42.065Z,7.03
2019-03-22T04:37:45.397Z,7.10
2019-03-22T04:40:48.711Z,7.21
2019-03-22T04:43:52.023Z,7.19
2019-03-22T04:46:55.339Z,6.99
2019-03-22T04:49:58.653Z,7.19
2019-03-22T04:53:01.972Z,6.89
2019-03-22T04:56:06.325Z,7.03
2019-03-22T04:59:18.893Z,7.15
2019-03-22T05:02:15.914Z,7.15
2019-03-22T05:05:19.231Z,6.71
2019-03-22T05:08:22.549Z,6.66
2019-03-22T05:11:25.853Z,6.85
2019-03-22T05:14:29.355Z,6.69
2019-03-22T05:17:32.688Z,6.65
2019-03-22T05:20:36.007Z,6.85
2019-03-22T05:23:39.332Z,6.91
2019-03-22T05:26:42.637Z,6.95
2019-03-22T05:29:45.984Z,7.28
2019-03-22T05:32:49.309Z,7.78
2019-03-22T05:35:52.631Z,7.97
2019-03-22T05:38:55.975Z,8.16
2019-03-22T05:41:59.280Z,7.91
2019-03-22T05:45:02.641Z,8.61
2019-03-22T05:48:05.959Z,8.86
2019-03-22T05:51:09.303Z,8.96
2019-03-22T05:54:12.609Z,10.17
2019-03-22T05:57:15.924Z,10.96
2019-03-22T06:00:19.282Z,10.96
2019-03-22T06:03:22.625Z,10.41
2019-03-22T06:06:25.947Z,10.52
2019-03-22T06:09:29.270Z,11.85
2019-03-22T06:12:32.597Z,13.27
2019-03-22T06:15:35.925Z,14.54
2019-03-22T06:18:39.318Z,14.53
2019-03-22T06:21:42.661Z,14.57
2019-03-22T06:24:45.982Z,14.47
2019-03-22T06:27:49.284Z,14.90
2019-03-22T06:30:52.688Z,15.34
2019-03-22T06:33:55.998Z,15.11
2019-03-22T06:36:59.313Z,13.96
2019-03-22T06:40:02.655Z,15.36
2019-03-22T06:43:05.961Z,15.55
2019-03-22T06:46:09.296Z,15.26
2019-03-22T06:49:12.607Z,14.74
2019-03-22T06:52:16.010Z,15.23
2019-03-22T06:55:19.410Z,15.53
2019-03-22T06:58:24.197Z,15.25
2019-03-22T07:01:27.800Z,15.97
2019-03-22T07:04:31.182Z,16.87
2019-03-22T07:07:34.585Z,16.83
2019-03-22T07:10:37.992Z,17.78
2019-03-22T07:13:41.369Z,18.15
2019-03-22T07:16:44.764Z,18.82
2019-03-22T07:19:48.160Z,19.05
2019-03-22T07:22:51.593Z,19.02
2019-03-22T07:25:55.001Z,18.64
2019-03-22T07:28:58.397Z,18.28
2019-03-22T07:32:01.810Z,18.19
2019-03-22T07:35:05.677Z,18.62
2019-03-22T07:38:09.096Z,18.83
2019-03-22T07:41:12.569Z,18.21
2019-03-22T07:44:15.958Z,17.82
2019-03-22T07:47:19.364Z,17.98
2019-03-22T07:50:22.766Z,18.89
2019-03-22T07:53:26.174Z,19.37
2019-03-22T07:56:29.567Z,18.99
2019-03-22T07:59:32.950Z,17.96
2019-03-22T08:02:36.351Z,18.32
2019-03-22T08:05:50.997Z,17.07
2019-03-22T08:08:44.896Z,17.44
2019-03-22T08:11:48.303Z,19.29
2019-03-22T08:14:51.799Z,19.75
2019-03-22T08:17:57.091Z,19.40
2019-03-22T08:21:00.293Z,19.45
2019-03-22T08:24:03.676Z,19.42
2019-03-22T08:27:07.102Z,21.19
2019-03-22T08:30:10.505Z,20.80
2019-03-22T08:33:13.875Z,20.85
2019-03-22T08:36:17.268Z,20.73
2019-03-22T08:39:20.668Z,22.74
2019-03-22T08:42:24.070Z,23.96
2019-03-22T08:45:27.458Z,24.56
2019-03-22T08:48:30.896Z,27.33
2019-03-22T08:51:34.247Z,27.54
2019-03-22T08:54:38.419Z,28.24
2019-03-22T08:57:41.922Z,29.54
2019-03-22T09:00:56.761Z,28.91
2019-03-22T09:03:50.451Z,27.86
2019-03-22T09:06:53.863Z,28.03
2019-03-22T09:09:57.290Z,28.41
2019-03-22T09:13:00.662Z,28.77
2019-03-22T09:16:04.109Z,27.61
2019-03-22T09:19:07.473Z,30.11
2019-03-22T09:22:10.855Z,30.99
2019-03-22T09:25:14.254Z,32.65
2019-03-22T09:28:17.654Z,31.71
2019-03-22T09:31:21.080Z,29.68
2019-03-22T09:34:33.497Z,31.15
2019-03-22T09:37:29.563Z,29.61
2019-03-22T09:40:32.959Z,28.72
2019-03-22T09:43:36.654Z,27.39
2019-03-22T09:46:40.011Z,27.60
2019-03-22T09:49:43.538Z,27.65
2019-03-22T09:52:46.952Z,29.18
2019-03-22T09:55:50.341Z,29.41
2019-03-22T09:58:53.727Z,29.07
2019-03-22T10:01:57.163Z,27.28
2019-03-22T10:05:00.524Z,26.90
2019-03-22T10:08:03.925Z,26.36
2019-03-22T10:11:07.355Z,25.27
2019-03-22T10:14:10.755Z,24.45
2019-03-22T10:17:14.123Z,24.02
2019-03-22T10:20:17.594Z,23.49
2019-03-22T10:23:22.399Z,23.54
2019-03-22T10:26:26.022Z,23.77
2019-03-22T10:29:29.423Z,23.29
2019-03-22T10:32:32.792Z,22.74
2019-03-22T10:35:36.208Z,22.92
2019-03-22T10:38:39.644Z,23.09
2019-03-22T10:41:43.012Z,23.06
2019-03-22T10:44:46.423Z,23.35
2019-03-22T10:47:49.815Z,23.51
2019-03-22T10:50:53.216Z,22.87
2019-03-22T10:53:56.667Z,23.61
2019-03-22T10:57:00.039Z,23.47
2019-03-22T11:00:08.467Z,24.12
2019-03-22T11:03:11.845Z,24.53
2019-03-22T11:06:25.499Z,23.07
2019-03-22T11:09:20.430Z,24.22
2019-03-22T11:12:23.826Z,24.04
2019-03-22T11:15:27.320Z,23.82
2019-03-22T11:18:37.318Z,23.39
2019-03-22T11:21:35.837Z,22.99
2019-03-22T11:24:39.229Z,23.23
2019-03-22T11:27:42.648Z,22.61
2019-03-22T11:30:46.041Z,22.66
2019-03-22T11:33:49.431Z,22.64
2019-03-22T11:36:52.843Z,22.58
2019-03-22T11:39:56.235Z,21.87
2019-03-22T11:43:08.274Z,22.52
2019-03-22T11:46:04.746Z,22.76
2019-03-22T11:49:08.143Z,22.59
2019-03-22T11:52:11.579Z,22.64
2019-03-22T11:55:15.058Z,22.63
2019-03-22T11:58:18.472Z,22.73
2019-03-22T12:01:22.626Z,22.72
2019-03-22T12:04:26.251Z,22.97
2019-03-22T12:07:29.657Z,23.07
2019-03-22T12:10:33.037Z,22.62
2019-03-22T12:13:36.441Z,22.40
2019-03-22T12:16:39.832Z,22.30
2019-03-22T12:19:43.212Z,22.25
2019-03-22T12:22:46.628Z,21.89
2019-03-22T12:25:50.043Z,21.97
2019-03-22T12:28:53.428Z,22.19
2019-03-22T12:31:56.824Z,22.32
2019-03-22T12:35:00.323Z,22.02
2019-03-22T12:38:03.713Z,22.38
2019-03-22T12:41:07.106Z,22.20
2019-03-22T12:44:10.493Z,22.22
2019-03-22T12:47:13.893Z,22.14
2019-03-22T12:50:17.275Z,21.26
2019-03-22T12:53:20.684Z,21.79
2019-03-22T12:56:24.070Z,22.08
2019-03-22T12:59:27.507Z,21.86
2019-03-22T13:02:30.929Z,22.09
2019-03-22T13:05:34.312Z,22.05
2019-03-22T13:08:37.732Z,21.96
2019-03-22T13:11:41.131Z,22.05
2019-03-22T13:14:44.540Z,21.99
2019-03-22T13:17:47.941Z,22.14
2019-03-22T13:20:51.322Z,21.66
2019-03-22T13:23:54.752Z,21.54
2019-03-22T13:26:58.148Z,21.48
2019-03-22T13:30:01.549Z,21.43
2019-03-22T13:33:05.226Z,21.40
2019-03-22T13:36:08.618Z,21.29
2019-03-22T13:39:12.026Z,21.17
2019-03-22T13:42:15.422Z,21.06
2019-03-22T13:45:18.840Z,20.88
2019-03-22T13:48:22.252Z,21.03
2019-03-22T13:51:25.645Z,20.82
2019-03-22T13:54:29.045Z,20.66
2019-03-22T13:57:32.450Z,20.61
2019-03-22T14:00:35.854Z,20.45
2019-03-22T14:03:39.259Z,20.47
2019-03-22T14:06:42.670Z,20.40
2019-03-22T14:09:46.075Z,20.33
2019-03-22T14:12:49.525Z,20.22
2019-03-22T14:15:52.973Z,20.02
2019-03-22T14:18:56.413Z,19.91
2019-03-22T14:21:59.792Z,19.97
2019-03-22T14:25:03.565Z,19.90
2019-03-22T14:28:06.963Z,20.01
2019-03-22T14:31:10.389Z,19.53
2019-03-22T14:34:13.811Z,19.86
2019-03-22T14:37:17.281Z,19.88
2019-03-22T14:40:21.055Z,19.55
2019-03-22T14:43:24.437Z,19.65
2019-03-22T14:46:27.844Z,19.56
2019-03-22T14:49:31.249Z,19.65
2019-03-22T14:52:34.645Z,19.73
2019-03-22T14:55:38.048Z,19.66
2019-03-22T14:58:41.449Z,19.57
2019-03-22T15:01:44.846Z,19.26
2019-03-22T15:04:48.243Z,19.34
2019-03-22T15:07:51.619Z,19.23
2019-03-22T15:10:55.077Z,19.19
2019-03-22T15:14:02.951Z,19.32
2019-03-22T15:17:24.653Z,19.42
2019-03-22T15:20:29.612Z,19.36
2019-03-22T15:23:40.770Z,19.25
2019-03-22T15:26:58.197Z,19.26
2019-03-22T15:30:04.611Z,19.34
2019-03-22T15:33:34.144Z,19.30
2019-03-22T15:36:50.557Z,19.21
2019-03-22T15:40:03.350Z,19.26
2019-03-22T15:43:06.797Z,19.24
2019-03-22T15:46:10.193Z,19.23
2019-03-22T15:49:13.807Z,19.24
2019-03-22T15:52:17.210Z,19.23
2019-03-22T15:55:20.596Z,19.22
2019-03-22T15:58:23.996Z,19.06
2019-03-22T16:01:27.380Z,18.83
2019-03-22T16:04:30.791Z,18.79
2019-03-22T16:07:34.183Z,18.79
2019-03-22T16:10:37.580Z,18.71
2019-03-22T16:13:40.979Z,18.66
2019-03-22T16:16:44.371Z,18.63
2019-03-22T16:19:47.761Z,18.56
2019-03-22T16:22:51.161Z,18.44
2019-03-22T16:25:54.558Z,18.39
2019-03-22T16:28:57.972Z,18.29
2019-03-22T16:32:01.366Z,18.27
2019-03-22T16:35:06.500Z,18.28
2019-03-22T16:38:09.911Z,18.25
2019-03-22T16:41:13.298Z,18.15
2019-03-22T16:44:16.708Z,18.16
2019-03-22T16:47:20.114Z,18.11
2019-03-22T16:50:24.549Z,18.08
2019-03-22T16:53:27.948Z,18.03
2019-03-22T16:56:31.330Z,17.99
2019-03-22T16:59:34.736Z,17.92
2019-03-22T17:02:38.168Z,17.88
2019-03-22T17:05:41.552Z,17.77
2019-03-22T17:08:45.006Z,17.72
2019-03-22T17:11:48.405Z,17.69
2019-03-22T17:14:51.805Z,17.62
2019-03-22T17:17:55.221Z,17.46
2019-03-22T17:20:58.630Z,17.46
2019-03-22T17:24:02.070Z,17.38
2019-03-22T17:27:05.571Z,17.31
2019-03-22T17:30:10.230Z,17.23
2019-03-22T17:33:13.623Z,17.14
2019-03-22T17:36:17.025Z,17.16
2019-03-22T17:39:20.462Z,17.11
2019-03-22T17:42:23.833Z,17.03
2019-03-22T17:45:27.222Z,17.01
2019-03-22T17:48:30.659Z,16.97
2019-03-22T17:51:34.085Z,16.91
2019-03-22T17:54:37.477Z,16.82
2019-03-22T17:57:40.848Z,16.73
2019-03-22T18:00:44.860Z,16.73
2019-03-22T18:03:48.240Z,16.68
2019-03-22T18:06:51.644Z,16.51
2019-03-22T18:09:55.038Z,16.44
2019-03-22T18:12:58.341Z,16.47
2019-03-22T18:16:01.742Z,16.38
2019-03-22T18:19:05.042Z,16.32
2019-03-22T18:22:08.475Z,16.32
2019-03-22T18:25:11.814Z,16.09
2019-03-22T18:28:15.129Z,16.17
2019-03-22T18:31:18.527Z,16.16
2019-03-22T18:34:21.864Z,16.11
2019-03-22T18:37:25.215Z,16.06
2019-03-22T18:40:28.530Z,15.88
2019-03-22T18:43:31.878Z,15.88
2019-03-22T18:46:35.213Z,15.88
2019-03-22T18:49:38.537Z,15.85
2019-03-22T18:52:41.876Z,15.74
2019-03-22T18:55:45.254Z,15.71
2019-03-22T18:58:48.604Z,15.67
2019-03-22T19:01:52.007Z,15.66
2019-03-22T19:04:55.305Z,15.53
2019-03-22T19:07:58.642Z,15.59
2019-03-22T19:11:01.968Z,15.52
2019-03-22T19:14:05.301Z,15.45
2019-03-22T19:17:08.606Z,15.47
2019-03-22T19:20:12.964Z,15.40
2019-03-22T19:23:16.297Z,15.34
2019-03-22T19:26:19.585Z,15.41
2019-03-22T19:29:22.913Z,15.41
2019-03-22T19:32:26.254Z,15.28
2019-03-22T19:35:29.692Z,15.27
2019-03-22T19:38:33.016Z,15.14
2019-03-22T19:41:36.331Z,15.14
2019-03-22T19:44:39.844Z,15.14
2019-03-22T19:47:43.455Z,15.03
2019-03-22T19:50:46.764Z,14.95
2019-03-22T19:53:50.087Z,14.96
2019-03-22T19:56:53.422Z,14.87
2019-03-22T19:59:56.750Z,14.85
2019-03-22T20:03:00.133Z,14.71
2019-03-22T20:06:03.450Z,14.71
2019-03-22T20:09:08.894Z,14.64
2019-03-22T20:12:12.209Z,14.63
2019-03-22T20:15:15.540Z,14.53
2019-03-22T20:18:18.857Z,14.45
2019-03-22T20:21:22.179Z,14.46
2019-03-22T20:24:25.543Z,14.43
2019-03-22T20:27:28.877Z,14.38
2019-03-22T20:30:32.204Z,14.39
2019-03-22T20:33:35.559Z,14.27
2019-03-22T20:36:38.875Z,14.20
2019-03-22T20:39:42.232Z,14.13
2019-03-22T20:42:45.533Z,14.12
2019-03-22T20:45:48.909Z,14.16
2019-03-22T20:48:52.502Z,14.05
2019-03-22T20:51:55.806Z,14.04
2019-03-22T20:54:59.152Z,13.97
2019-03-22T20:58:02.455Z,14.00
2019-03-22T21:01:25.659Z,13.96
2019-03-22T21:04:29.089Z,13.82
2019-03-22T21:07:32.474Z,13.81
2019-03-22T21:10:35.838Z,13.72
2019-03-22T21:13:39.170Z,13.73
2019-03-22T21:16:42.500Z,13.75
2019-03-22T21:19:46.202Z,13.80
2019-03-22T21:22:49.914Z,13.48
2019-03-22T21:25:55.302Z,13.55
2019-03-22T21:28:58.890Z,13.53
2019-03-22T21:32:02.378Z,13.35
2019-03-22T21:35:07.075Z,13.44
2019-03-22T21:38:11.359Z,13.18
2019-03-22T21:41:14.866Z,13.34
2019-03-22T21:44:18.652Z,13.33
2019-03-22T21:47:21.987Z,13.19
2019-03-22T21:50:25.335Z,13.31
2019-03-22T21:53:28.663Z,13.25
2019-03-22T21:56:32.018Z,13.24
2019-03-22T21:59:35.328Z,13.16
2019-03-22T22:02:38.661Z,13.18
2019-03-22T22:05:47.758Z,13.17
2019-03-22T22:08:47.107Z,12.82
2019-03-22T22:11:50.436Z,12.96
2019-03-22T22:14:54.113Z,12.91
2019-03-22T22:17:57.433Z,12.82
2019-03-22T22:21:00.914Z,12.64
2019-03-22T22:24:04.918Z,12.45
2019-03-22T22:27:13.819Z,12.53
2019-03-22T22:30:13.458Z,12.62
2019-03-22T22:33:16.789Z,12.32
2019-03-22T22:36:20.098Z,12.53
2019-03-22T22:39:23.431Z,12.57
2019-03-22T22:42:26.765Z,12.61
2019-03-22T22:45:30.062Z,12.53
2019-03-22T22:48:33.404Z,12.42
2019-03-22T22:51:36.713Z,12.40
2019-03-22T22:54:40.018Z,12.44
2019-03-22T22:57:43.370Z,12.47
2019-03-22T23:00:47.150Z,12.18
2019-03-22T23:03:50.550Z,12.29
2019-03-22T23:06:53.909Z,12.09
2019-03-22T23:09:57.182Z,12.09
2019-03-22T23:13:00.515Z,12.30
2019-03-22T23:16:03.821Z,12.27
2019-03-22T23:19:07.207Z,12.35
2019-03-22T23:22:10.541Z,12.33
2019-03-22T23:25:13.864Z,12.25
2019-03-22T23:28:17.196Z,12.23
2019-03-22T23:31:20.649Z,11.98
2019-03-22T23:34:23.968Z,12.01
2019-03-22T23:37:27.308Z,11.83
2019-03-22T23:40:30.680Z,11.98
2019-03-22T23:43:34.006Z,11.88
2019-03-22T23:46:37.306Z,11.84
2019-03-22T23:49:40.638Z,11.45
2019-03-22T23:52:43.960Z,11.52
2019-03-22T23:55:47.262Z,11.67
2019-03-22T23:58:50.585Z,11.45
